Skokie, IL (60076)

6:11 AM CST en Noviembre 24, 2014 (GMT -0600)
Skokie | Change Station
CLOSE
Current Station
Estación meteorológica personal
Location: Skokie, IL
Altura: 627 ft
Estaciones meteorológicas cercanas

Alt 627 ft 42.03 °N, 87.73 °W | Updated 5 minutes ago

Nublado
Nublado
47.8 ° F
Sensación térmica 48 ° F
N
1.1
Viento Variable Viento desde Norte

Hoy
Alta -- | Baja -- ° F
--% Posibilidad de precipitaciones
Ayer
Alta -- | Baja -- ° F
Precip. -- pul
6:51 AM 4:23 PM
Creciente, 5% visible
Presión 29.07 pul
Visibilidad 6.0 Millas
Nubes Nublado 500 ft
Vientos helados 48 ° F
Punto de rocío 48 ° F
Humedad 99%
Precipitaciones 0.18 pul
Espesor de la nieve No disponible.
UV 0 de una escala de 12
Polen .10 de una escala de 12
Calidad del aire No disponible.
Flu Activity No disponible.
METAR KORD 241151Z 27005KT 6SM -DZ BR OVC005 08/08 A2906 RMK AO2 RAE46DZB46 SLP843 CIG 003V007 P0002 60012 70075 T00830078 10094 20083 58003

More Conditions Fewer Conditions

Presión 29.07 pul
Visibilidad 6.0 Millas
Nubes Nublado 500 ft
Vientos helados 48 ° F
Punto de rocío 48 ° F
Humedad 99%
Precipitaciones 0.18 pul
Espesor de la nieve No disponible.
UV 0 de una escala de 12
Polen .10 de una escala de 12
Calidad del aire No disponible.
Flu Activity No disponible.
METAR KORD 241151Z 27005KT 6SM -DZ BR OVC005 08/08 A2906 RMK AO2 RAE46DZB46 SLP843 CIG 003V007 P0002 60012 70075 T00830078 10094 20083 58003

More Conditions Fewer Conditions

10-Day Weather Forecast

Almanac

Astronomía

Nov. 24, 2014 Salida Puesta
Hora real
Crepúsculo civil
Crepúsculo náutico
Crepúsculo astronómico
Luna
Horas de luz
Horas de luz
Tomorrow will be .
, % of the Moon is Illuminated

Extremos de hoy

Máximos del estado Bajos del estado

Community

WunderPhotos

Upload Photos

1,773,319 ¡fotos cargadas!

WunderBlogs® & News

Nearby

Calidad del aire

  Calidad del aire Índice AQ Contaminante
Not available.

Grosos de nieve

Estación Profundido Altura

Actividad de terremotos

Ciudad Distance Mag. Tiempo y dato
Magnitud mínima muestra es 2,5.

Temperaturas de aguas costeras

Lugar Temperatura

Estaciones meteorológicas cercanas